Terminal Aerodrome Forecast
Issued by NWS

Home | Current Version | Previous Version | Text Only | Print | Product List | Glossary On
Versions: 1 2 3 4 5 6 7 8 9 10 11 12 13 14 15 16 17 18 19 20
000
FTUS42 KTBW 291130
TAFRSW
TAF
KRSW 291130Z 2912/3012 23006KT P6SM VCTS SCT025CB SCT250
     FM291600 26011KT P6SM VCTS SCT025CB SCT250
     FM300000 25006KT P6SM SCT030 BKN250
     FM300400 21005KT P6SM SCT050 BKN100=

USA.gov is the U.S. government's official web portal to all federal, state and local government web resources and services.